sensor_id;sensor_type;location;lat;lon;timestamp;pressure;altitude;pressure_sealevel;temperature;humidity
65997;BME280;52765;52.258;21.052;2023-03-01T00:01:29;101975.91;;;-0.76;86.72
65997;BME280;52765;52.258;21.052;2023-03-01T00:03:56;101973.38;;;-0.80;87.55
65997;BME280;52765;52.258;21.052;2023-03-01T00:06:22;101968.66;;;-0.69;86.89
65997;BME280;52765;52.258;21.052;2023-03-01T00:08:48;101966.78;;;-0.65;86.51
65997;BME280;52765;52.258;21.052;2023-03-01T00:13:40;101959.56;;;-0.60;86.44
65997;BME280;52765;52.258;21.052;2023-03-01T00:16:09;101970.28;;;-0.63;86.52
65997;BME280;52765;52.258;21.052;2023-03-01T00:18:34;101962.13;;;-0.57;86.45
65997;BME280;52765;52.258;21.052;2023-03-01T00:21:00;101956.78;;;-0.56;86.48
65997;BME280;52765;52.258;21.052;2023-03-01T00:23:26;101953.31;;;-0.58;86.85
65997;BME280;52765;52.258;21.052;2023-03-01T00:25:52;101945.59;;;-0.65;86.94
65997;BME280;52765;52.258;21.052;2023-03-01T00:28:18;101956.78;;;-0.56;86.39
65997;BME280;52765;52.258;21.052;2023-03-01T00:30:43;101945.38;;;-0.58;86.47
65997;BME280;52765;52.258;21.052;2023-03-01T00:33:09;101945.34;;;-0.56;86.69
65997;BME280;52765;52.258;21.052;2023-03-01T00:35:35;101946.38;;;-0.62;87.15
65997;BME280;52765;52.258;21.052;2023-03-01T00:38:01;101937.50;;;-0.59;86.84
65997;BME280;52765;52.258;21.052;2023-03-01T00:40:28;101954.91;;;-0.52;86.91
65997;BME280;52765;52.258;21.052;2023-03-01T00:42:54;101962.34;;;-0.63;87.22
65997;BME280;52765;52.258;21.052;2023-03-01T00:45:20;101953.31;;;-0.87;88.41
65997;BME280;52765;52.258;21.052;2023-03-01T00:47:46;101948.91;;;-0.88;89.37
65997;BME280;52765;52.258;21.052;2023-03-01T00:50:12;101951.44;;;-0.84;89.02
65997;BME280;52765;52.258;21.052;2023-03-01T00:52:38;101953.06;;;-0.78;88.85
65997;BME280;52765;52.258;21.052;2023-03-01T00:55:06;101949.31;;;-0.71;88.23
65997;BME280;52765;52.258;21.052;2023-03-01T00:57:32;101946.53;;;-0.66;87.96
65997;BME280;52765;52.258;21.052;2023-03-01T00:59:58;101949.03;;;-0.62;87.97
65997;BME280;52765;52.258;21.052;2023-03-01T01:02:24;101951.78;;;-0.65;87.17
65997;BME280;52765;52.258;21.052;2023-03-01T01:04:50;101943.97;;;-0.69;87.87
65997;BME280;52765;52.258;21.052;2023-03-01T01:07:15;101925.50;;;-0.71;87.95
65997;BME280;52765;52.258;21.052;2023-03-01T01:09:41;101925.41;;;-0.68;88.00
65997;BME280;52765;52.258;21.052;2023-03-01T01:12:07;101937.66;;;-0.65;86.99
65997;BME280;52765;52.258;21.052;2023-03-01T01:14:33;101927.72;;;-0.87;88.09
65997;BME280;52765;52.258;21.052;2023-03-01T01:16:58;101924.63;;;-1.01;88.93
65997;BME280;52765;52.258;21.052;2023-03-01T01:19:24;101927.22;;;-1.00;88.94
65997;BME280;52765;52.258;21.052;2023-03-01T01:21:50;101918.63;;;-1.08;89.13
65997;BME280;52765;52.258;21.052;2023-03-01T01:24:15;101921.19;;;-1.05;88.92
65997;BME280;52765;52.258;21.052;2023-03-01T01:26:41;101913.59;;;-1.17;89.64
65997;BME280;52765;52.258;21.052;2023-03-01T01:29:08;101905.78;;;-1.22;89.72
65997;BME280;52765;52.258;21.052;2023-03-01T01:31:35;101910.13;;;-1.19;89.56
65997;BME280;52765;52.258;21.052;2023-03-01T01:34:03;101918.19;;;-1.24;90.51
65997;BME280;52765;52.258;21.052;2023-03-01T01:36:30;101918.47;;;-1.33;90.43
65997;BME280;52765;52.258;21.052;2023-03-01T01:38:55;101920.47;;;-1.43;90.97
65997;BME280;52765;52.258;21.052;2023-03-01T01:41:22;101919.59;;;-1.43;91.19
65997;BME280;52765;52.258;21.052;2023-03-01T01:44:09;101902.88;;;-1.44;91.39
65997;BME280;52765;52.258;21.052;2023-03-01T01:46:47;101919.41;;;-1.36;90.88
65997;BME280;52765;52.258;21.052;2023-03-01T01:57:27;101913.63;;;-1.52;92.63
65997;BME280;52765;52.258;21.052;2023-03-01T01:59:58;101912.63;;;-1.46;92.11
65997;BME280;52765;52.258;21.052;2023-03-01T02:02:25;101899.53;;;-1.51;91.80
65997;BME280;52765;52.258;21.052;2023-03-01T02:04:56;101896.09;;;-1.54;92.12
65997;BME280;52765;52.258;21.052;2023-03-01T02:07:29;101895.31;;;-1.58;92.59
65997;BME280;52765;52.258;21.052;2023-03-01T02:09:55;101887.34;;;-1.56;92.45
65997;BME280;52765;52.258;21.052;2023-03-01T02:12:23;101884.41;;;-1.45;91.67
65997;BME280;52765;52.258;21.052;2023-03-01T02:14:50;101889.63;;;-1.42;91.64
65997;BME280;52765;52.258;21.052;2023-03-01T02:17:17;101904.84;;;-1.52;92.14
65997;BME280;52765;52.258;21.052;2023-03-01T02:22:36;101887.63;;;-1.67;92.51
65997;BME280;52765;52.258;21.052;2023-03-01T02:25:25;101885.91;;;-1.68;93.19
65997;BME280;52765;52.258;21.052;2023-03-01T02:30:43;101878.41;;;-1.52;91.87
65997;BME280;52765;52.258;21.052;2023-03-01T02:33:28;101873.19;;;-1.54;92.26
65997;BME280;52765;52.258;21.052;2023-03-01T02:36:00;101871.09;;;-1.42;91.42
65997;BME280;52765;52.258;21.052;2023-03-01T02:38:27;101870.22;;;-1.41;91.11
65997;BME280;52765;52.258;21.052;2023-03-01T02:40:54;101868.25;;;-1.35;90.87
65997;BME280;52765;52.258;21.052;2023-03-01T02:43:22;101870.19;;;-1.40;91.41
65997;BME280;52765;52.258;21.052;2023-03-01T02:45:52;101862.47;;;-1.49;91.40
65997;BME280;52765;52.258;21.052;2023-03-01T02:48:19;101876.94;;;-1.62;91.90
65997;BME280;52765;52.258;21.052;2023-03-01T02:56:02;101874.22;;;-1.59;92.98
65997;BME280;52765;52.258;21.052;2023-03-01T02:58:27;101856.38;;;-1.51;91.94
65997;BME280;52765;52.258;21.052;2023-03-01T03:00:53;101845.53;;;-1.42;91.79
65997;BME280;52765;52.258;21.052;2023-03-01T03:03:21;101841.91;;;-1.38;91.14
65997;BME280;52765;52.258;21.052;2023-03-01T03:05:47;101852.34;;;-1.33;91.11
65997;BME280;52765;52.258;21.052;2023-03-01T03:08:13;101852.16;;;-1.27;90.33
65997;BME280;52765;52.258;21.052;2023-03-01T03:10:41;101845.50;;;-1.40;90.09
65997;BME280;52765;52.258;21.052;2023-03-01T03:13:10;101835.66;;;-1.35;90.87
65997;BME280;52765;52.258;21.052;2023-03-01T03:15:36;101832.97;;;-1.34;90.58
65997;BME280;52765;52.258;21.052;2023-03-01T03:18:03;101828.56;;;-1.33;90.59
65997;BME280;52765;52.258;21.052;2023-03-01T03:20:30;101820.59;;;-1.32;90.08
65997;BME280;52765;52.258;21.052;2023-03-01T03:22:57;101839.13;;;-1.33;90.10
65997;BME280;52765;52.258;21.052;2023-03-01T03:25:25;101827.59;;;-1.31;89.68
65997;BME280;52765;52.258;21.052;2023-03-01T03:27:51;101830.59;;;-1.43;90.11
65997;BME280;52765;52.258;21.052;2023-03-01T03:30:27;101827.09;;;-1.45;90.92
65997;BME280;52765;52.258;21.052;2023-03-01T03:32:53;101821.06;;;-1.49;91.18
65997;BME280;52765;52.258;21.052;2023-03-01T03:35:24;101825.72;;;-1.58;90.85
65997;BME280;52765;52.258;21.052;2023-03-01T03:37:51;101832.31;;;-1.73;92.06
65997;BME280;52765;52.258;21.052;2023-03-01T03:40:38;101835.25;;;-1.84;92.75
65997;BME280;52765;52.258;21.052;2023-03-01T03:43:09;101837.13;;;-1.89;92.89
65997;BME280;52765;52.258;21.052;2023-03-01T03:45:35;101834.75;;;-2.00;93.62
65997;BME280;52765;52.258;21.052;2023-03-01T03:48:02;101827.91;;;-2.07;94.08
65997;BME280;52765;52.258;21.052;2023-03-01T03:50:28;101831.47;;;-2.08;94.59
65997;BME280;52765;52.258;21.052;2023-03-01T03:52:54;101822.78;;;-2.13;95.03
65997;BME280;52765;52.258;21.052;2023-03-01T03:55:20;101808.72;;;-2.14;94.89
65997;BME280;52765;52.258;21.052;2023-03-01T03:57:47;101814.69;;;-2.06;94.98
65997;BME280;52765;52.258;21.052;2023-03-01T04:00:18;101817.16;;;-1.99;94.62
65997;BME280;52765;52.258;21.052;2023-03-01T04:02:45;101805.38;;;-1.86;94.78
65997;BME280;52765;52.258;21.052;2023-03-01T04:05:14;101796.16;;;-1.71;93.50
65997;BME280;52765;52.258;21.052;2023-03-01T04:07:41;101799.66;;;-1.71;92.55
65997;BME280;52765;52.258;21.052;2023-03-01T04:10:12;101794.13;;;-1.61;93.46
65997;BME280;52765;52.258;21.052;2023-03-01T04:12:38;101792.16;;;-1.55;91.86
65997;BME280;52765;52.258;21.052;2023-03-01T04:15:05;101798.03;;;-1.45;91.51
65997;BME280;52765;52.258;21.052;2023-03-01T04:17:46;101813.72;;;-1.39;91.08
65997;BME280;52765;52.258;21.052;2023-03-01T04:20:16;101811.69;;;-1.60;92.02
65997;BME280;52765;52.258;21.052;2023-03-01T04:22:53;101809.44;;;-1.74;92.37
65997;BME280;52765;52.258;21.052;2023-03-01T04:25:23;101802.34;;;-1.72;92.71
65997;BME280;52765;52.258;21.052;2023-03-01T04:27:49;101802.91;;;-1.61;92.74
65997;BME280;52765;52.258;21.052;2023-03-01T04:30:14;101800.00;;;-1.52;91.84
65997;BME280;52765;52.258;21.052;2023-03-01T04:32:40;101785.78;;;-1.47;91.21
65997;BME280;52765;52.258;21.052;2023-03-01T04:35:06;101784.72;;;-1.42;91.44
65997;BME280;52765;52.258;21.052;2023-03-01T04:37:31;101790.78;;;-1.38;90.91
65997;BME280;52765;52.258;21.052;2023-03-01T04:39:57;101786.25;;;-1.33;90.20
65997;BME280;52765;52.258;21.052;2023-03-01T04:42:24;101785.47;;;-1.37;90.98
65997;BME280;52765;52.258;21.052;2023-03-01T04:44:49;101771.28;;;-1.34;90.71
65997;BME280;52765;52.258;21.052;2023-03-01T04:47:16;101775.56;;;-1.30;90.57
65997;BME280;52765;52.258;21.052;2023-03-01T04:49:43;101769.34;;;-1.27;90.32
65997;BME280;52765;52.258;21.052;2023-03-01T04:52:08;101775.53;;;-1.28;89.79
65997;BME280;52765;52.258;21.052;2023-03-01T04:54:35;101770.06;;;-1.22;90.20
65997;BME280;52765;52.258;21.052;2023-03-01T04:57:02;101768.06;;;-1.14;89.61
65997;BME280;52765;52.258;21.052;2023-03-01T04:59:28;101767.97;;;-1.11;89.17
65997;BME280;52765;52.258;21.052;2023-03-01T05:01:55;101770.34;;;-1.03;89.10
65997;BME280;52765;52.258;21.052;2023-03-01T05:04:22;101767.56;;;-0.99;88.53
65997;BME280;52765;52.258;21.052;2023-03-01T05:06:47;101759.72;;;-1.02;88.19
65997;BME280;52765;52.258;21.052;2023-03-01T05:09:13;101763.41;;;-1.06;88.50
65997;BME280;52765;52.258;21.052;2023-03-01T05:11:38;101779.25;;;-1.06;88.22
65997;BME280;52765;52.258;21.052;2023-03-01T05:14:05;101779.75;;;-1.21;87.85
65997;BME280;52765;52.258;21.052;2023-03-01T05:16:31;101789.13;;;-1.41;89.52
65997;BME280;52765;52.258;21.052;2023-03-01T05:18:58;101786.19;;;-1.61;91.01
65997;BME280;52765;52.258;21.052;2023-03-01T05:21:23;101790.56;;;-1.60;91.85
65997;BME280;52765;52.258;21.052;2023-03-01T05:23:49;101790.25;;;-1.50;91.45
65997;BME280;52765;52.258;21.052;2023-03-01T05:26:16;101785.72;;;-1.44;90.56
65997;BME280;52765;52.258;21.052;2023-03-01T05:28:43;101790.78;;;-1.38;90.55
65997;BME280;52765;52.258;21.052;2023-03-01T05:31:08;101801.31;;;-1.37;90.23
65997;BME280;52765;52.258;21.052;2023-03-01T05:33:38;101809.22;;;-1.35;90.23
65997;BME280;52765;52.258;21.052;2023-03-01T05:36:06;101805.88;;;-1.42;91.17
65997;BME280;52765;52.258;21.052;2023-03-01T05:38:32;101804.84;;;-1.36;91.43
65997;BME280;52765;52.258;21.052;2023-03-01T05:40:58;101814.81;;;-1.46;91.60
65997;BME280;52765;52.258;21.052;2023-03-01T05:43:23;101808.16;;;-1.59;91.54
65997;BME280;52765;52.258;21.052;2023-03-01T05:45:48;101816.78;;;-1.53;92.06
65997;BME280;52765;52.258;21.052;2023-03-01T05:48:14;101811.31;;;-1.46;91.63
65997;BME280;52765;52.258;21.052;2023-03-01T05:50:42;101815.44;;;-1.36;90.85
65997;BME280;52765;52.258;21.052;2023-03-01T05:53:12;101812.50;;;-1.27;91.20
65997;BME280;52765;52.258;21.052;2023-03-01T05:55:38;101811.31;;;-1.17;90.58
65997;BME280;52765;52.258;21.052;2023-03-01T05:58:07;101817.16;;;-1.05;89.36
65997;BME280;52765;52.258;21.052;2023-03-01T06:00:35;101810.69;;;-1.25;89.71
65997;BME280;52765;52.258;21.052;2023-03-01T06:03:01;101809.84;;;-1.27;90.39
65997;BME280;52765;52.258;21.052;2023-03-01T06:05:27;101817.53;;;-1.18;91.07
65997;BME280;52765;52.258;21.052;2023-03-01T06:07:53;101813.56;;;-1.03;90.51
65997;BME280;52765;52.258;21.052;2023-03-01T06:10:21;101808.69;;;-0.88;88.76
65997;BME280;52765;52.258;21.052;2023-03-01T06:12:47;101816.44;;;-0.82;88.22
65997;BME280;52765;52.258;21.052;2023-03-01T06:15:14;101802.94;;;-0.73;88.01
65997;BME280;52765;52.258;21.052;2023-03-01T06:17:42;101805.19;;;-0.61;87.40
65997;BME280;52765;52.258;21.052;2023-03-01T06:20:20;101794.19;;;-0.48;87.08
65997;BME280;52765;52.258;21.052;2023-03-01T06:22:47;101802.81;;;-0.42;86.46
65997;BME280;52765;52.258;21.052;2023-03-01T06:25:15;101800.84;;;-0.35;86.15
65997;BME280;52765;52.258;21.052;2023-03-01T06:27:42;101800.47;;;-0.24;85.94
65997;BME280;52765;52.258;21.052;2023-03-01T06:30:09;101804.19;;;-0.30;84.80
65997;BME280;52765;52.258;21.052;2023-03-01T06:32:36;101814.38;;;-0.44;84.98
65997;BME280;52765;52.258;21.052;2023-03-01T06:35:03;101800.59;;;-0.56;86.01
65997;BME280;52765;52.258;21.052;2023-03-01T06:37:28;101809.66;;;-0.63;86.30
65997;BME280;52765;52.258;21.052;2023-03-01T06:39:54;101805.75;;;-0.51;86.03
65997;BME280;52765;52.258;21.052;2023-03-01T06:42:19;101811.84;;;-0.49;86.04
65997;BME280;52765;52.258;21.052;2023-03-01T06:44:44;101802.59;;;-0.35;85.69
65997;BME280;52765;52.258;21.052;2023-03-01T06:47:11;101801.31;;;-0.24;84.75
65997;BME280;52765;52.258;21.052;2023-03-01T06:49:36;101802.69;;;-0.12;82.83
65997;BME280;52765;52.258;21.052;2023-03-01T06:52:02;101804.28;;;-0.06;83.34
65997;BME280;52765;52.258;21.052;2023-03-01T06:54:28;101812.00;;;0.00;83.48
65997;BME280;52765;52.258;21.052;2023-03-01T06:56:53;101809.38;;;0.00;82.73
65997;BME280;52765;52.258;21.052;2023-03-01T06:59:19;101818.06;;;0.04;82.66
65997;BME280;52765;52.258;21.052;2023-03-01T07:01:44;101811.19;;;-0.02;82.65
65997;BME280;52765;52.258;21.052;2023-03-01T07:04:11;101823.66;;;-0.06;83.26
65997;BME280;52765;52.258;21.052;2023-03-01T07:06:37;101815.53;;;0.01;83.66
65997;BME280;52765;52.258;21.052;2023-03-01T07:09:03;101820.78;;;0.02;83.25
65997;BME280;52765;52.258;21.052;2023-03-01T07:11:28;101817.63;;;-0.09;83.61
65997;BME280;52765;52.258;21.052;2023-03-01T07:13:54;101823.78;;;-0.09;83.78
65997;BME280;52765;52.258;21.052;2023-03-01T07:16:22;101824.66;;;-0.08;84.13
65997;BME280;52765;52.258;21.052;2023-03-01T07:18:48;101811.81;;;-0.21;84.82
65997;BME280;52765;52.258;21.052;2023-03-01T07:21:16;101807.72;;;-0.04;84.64
65997;BME280;52765;52.258;21.052;2023-03-01T07:23:42;101802.59;;;0.16;83.43
65997;BME280;52765;52.258;21.052;2023-03-01T07:26:07;101799.34;;;0.33;83.71
65997;BME280;52765;52.258;21.052;2023-03-01T07:28:33;101788.19;;;0.49;82.24
65997;BME280;52765;52.258;21.052;2023-03-01T07:31:05;101789.28;;;0.67;81.37
65997;BME280;52765;52.258;21.052;2023-03-01T07:33:31;101791.41;;;0.81;80.39
65997;BME280;52765;52.258;21.052;2023-03-01T07:35:58;101791.28;;;0.84;79.66
65997;BME280;52765;52.258;21.052;2023-03-01T07:38:24;101790.75;;;0.98;79.62
65997;BME280;52765;52.258;21.052;2023-03-01T07:40:49;101790.47;;;1.05;78.86
65997;BME280;52765;52.258;21.052;2023-03-01T07:43:15;101796.50;;;1.09;78.63
65997;BME280;52765;52.258;21.052;2023-03-01T07:45:40;101790.81;;;0.96;79.09
65997;BME280;52765;52.258;21.052;2023-03-01T07:48:05;101794.06;;;0.81;80.78
65997;BME280;52765;52.258;21.052;2023-03-01T07:50:31;101797.56;;;0.81;80.86
65997;BME280;52765;52.258;21.052;2023-03-01T07:52:57;101789.22;;;0.92;80.66
65997;BME280;52765;52.258;21.052;2023-03-01T07:55:22;101793.94;;;0.84;81.22
65997;BME280;52765;52.258;21.052;2023-03-01T07:57:47;101788.81;;;0.79;81.41
65997;BME280;52765;52.258;21.052;2023-03-01T08:00:13;101794.59;;;1.13;80.38
65997;BME280;52765;52.258;21.052;2023-03-01T08:02:39;101797.13;;;1.16;80.07
65997;BME280;52765;52.258;21.052;2023-03-01T08:05:07;101798.69;;;0.98;80.96
65997;BME280;52765;52.258;21.052;2023-03-01T08:07:33;101799.38;;;1.03;82.01
65997;BME280;52765;52.258;21.052;2023-03-01T08:09:58;101802.59;;;1.11;81.21
65997;BME280;52765;52.258;21.052;2023-03-01T08:12:24;101800.75;;;1.13;81.43
65997;BME280;52765;52.258;21.052;2023-03-01T08:14:49;101794.59;;;1.35;81.45
65997;BME280;52765;52.258;21.052;2023-03-01T08:17:15;101803.97;;;1.65;79.49
65997;BME280;52765;52.258;21.052;2023-03-01T08:19:40;101785.84;;;1.96;78.09
65997;BME280;52765;52.258;21.052;2023-03-01T08:22:05;101789.09;;;2.23;77.19
65997;BME280;52765;52.258;21.052;2023-03-01T08:24:31;101797.50;;;2.14;77.02
65997;BME280;52765;52.258;21.052;2023-03-01T08:26:56;101796.53;;;2.15;76.83
65997;BME280;52765;52.258;21.052;2023-03-01T08:29:22;101796.09;;;2.05;78.27
65997;BME280;52765;52.258;21.052;2023-03-01T08:31:50;101793.22;;;2.10;77.43
65997;BME280;52765;52.258;21.052;2023-03-01T08:34:16;101790.69;;;2.27;76.36
65997;BME280;52765;52.258;21.052;2023-03-01T08:36:44;101777.59;;;2.22;77.20
65997;BME280;52765;52.258;21.052;2023-03-01T08:39:12;101784.50;;;2.06;78.43
65997;BME280;52765;52.258;21.052;2023-03-01T08:41:38;101789.25;;;2.20;78.58
65997;BME280;52765;52.258;21.052;2023-03-01T08:44:05;101788.31;;;2.21;77.20
65997;BME280;52765;52.258;21.052;2023-03-01T08:46:33;101787.06;;;2.49;77.68
65997;BME280;52765;52.258;21.052;2023-03-01T08:48:59;101789.41;;;2.75;75.33
65997;BME280;52765;52.258;21.052;2023-03-01T08:51:25;101792.50;;;3.04;73.90
65997;BME280;52765;52.258;21.052;2023-03-01T08:53:53;101794.84;;;3.29;72.96
65997;BME280;52765;52.258;21.052;2023-03-01T08:56:29;101777.66;;;3.18;71.10
65997;BME280;52765;52.258;21.052;2023-03-01T08:59:00;101783.84;;;3.18;72.79
65997;BME280;52765;52.258;21.052;2023-03-01T09:01:54;101772.94;;;3.42;72.05
65997;BME280;52765;52.258;21.052;2023-03-01T09:04:45;101798.91;;;3.73;71.26
65997;BME280;52765;52.258;21.052;2023-03-01T09:09:55;101800.78;;;3.71;72.39
65997;BME280;52765;52.258;21.052;2023-03-01T09:12:26;101787.59;;;3.68;73.25
65997;BME280;52765;52.258;21.052;2023-03-01T09:14:55;101770.22;;;3.78;71.29
65997;BME280;52765;52.258;21.052;2023-03-01T09:17:20;101782.75;;;3.94;71.25
65997;BME280;52765;52.258;21.052;2023-03-01T09:19:51;101772.09;;;3.94;70.25
65997;BME280;52765;52.258;21.052;2023-03-01T09:22:29;101775.13;;;3.51;72.62
65997;BME280;52765;52.258;21.052;2023-03-01T09:25:20;101767.59;;;3.42;75.11
65997;BME280;52765;52.258;21.052;2023-03-01T09:27:46;101757.03;;;3.40;74.69
65997;BME280;52765;52.258;21.052;2023-03-01T09:30:11;101762.84;;;3.66;73.62
65997;BME280;52765;52.258;21.052;2023-03-01T09:32:37;101765.38;;;3.86;72.91
65997;BME280;52765;52.258;21.052;2023-03-01T09:35:08;101760.50;;;3.95;71.57
65997;BME280;52765;52.258;21.052;2023-03-01T09:37:37;101755.25;;;3.58;73.83
65997;BME280;52765;52.258;21.052;2023-03-01T09:40:04;101758.13;;;3.54;74.82
65997;BME280;52765;52.258;21.052;2023-03-01T09:42:32;101759.72;;;3.75;75.25
65997;BME280;52765;52.258;21.052;2023-03-01T09:45:05;101757.97;;;4.09;74.15
65997;BME280;52765;52.258;21.052;2023-03-01T09:47:33;101757.72;;;3.96;76.17
65997;BME280;52765;52.258;21.052;2023-03-01T09:50:17;101758.19;;;4.04;75.62
65997;BME280;52765;52.258;21.052;2023-03-01T09:52:46;101750.72;;;4.29;74.28
65997;BME280;52765;52.258;21.052;2023-03-01T09:55:17;101755.59;;;4.54;72.88
65997;BME280;52765;52.258;21.052;2023-03-01T10:00:42;101743.22;;;4.69;72.37
65997;BME280;52765;52.258;21.052;2023-03-01T10:06:12;101732.19;;;4.91;71.32
65997;BME280;52765;52.258;21.052;2023-03-01T10:08:57;101723.31;;;5.06;67.77
65997;BME280;52765;52.258;21.052;2023-03-01T10:11:36;101727.09;;;5.18;66.95
65997;BME280;52765;52.258;21.052;2023-03-01T10:16:57;101719.03;;;5.34;65.25
65997;BME280;52765;52.258;21.052;2023-03-01T10:19:31;101707.69;;;5.30;64.92
65997;BME280;52765;52.258;21.052;2023-03-01T10:22:02;101713.38;;;5.24;64.72
65997;BME280;52765;52.258;21.052;2023-03-01T10:24:32;101716.13;;;5.23;64.91
65997;BME280;52765;52.258;21.052;2023-03-01T10:27:58;101714.16;;;5.26;64.75
65997;BME280;52765;52.258;21.052;2023-03-01T10:30:29;101718.63;;;5.26;64.64
65997;BME280;52765;52.258;21.052;2023-03-01T10:32:58;101717.19;;;5.20;64.76
65997;BME280;52765;52.258;21.052;2023-03-01T10:35:26;101714.66;;;5.33;65.09
65997;BME280;52765;52.258;21.052;2023-03-01T10:38:08;101718.22;;;5.48;64.51
65997;BME280;52765;52.258;21.052;2023-03-01T10:40:36;101704.41;;;5.55;63.98
65997;BME280;52765;52.258;21.052;2023-03-01T10:43:14;101703.09;;;5.63;63.26
65997;BME280;52765;52.258;21.052;2023-03-01T10:45:39;101708.00;;;5.70;63.48
65997;BME280;52765;52.258;21.052;2023-03-01T10:50:33;101694.56;;;5.56;64.19
65997;BME280;52765;52.258;21.052;2023-03-01T10:53:01;101705.59;;;5.35;65.76
65997;BME280;52765;52.258;21.052;2023-03-01T10:55:36;101702.06;;;5.35;66.16
65997;BME280;52765;52.258;21.052;2023-03-01T11:03:41;101706.13;;;5.87;63.83
65997;BME280;52765;52.258;21.052;2023-03-01T11:08:46;101695.75;;;5.97;63.80
65997;BME280;52765;52.258;21.052;2023-03-01T11:11:33;101697.56;;;6.10;62.47
65997;BME280;52765;52.258;21.052;2023-03-01T11:16:28;101688.19;;;6.18;62.46
65997;BME280;52765;52.258;21.052;2023-03-01T11:21:38;101687.44;;;6.30;62.64
65997;BME280;52765;52.258;21.052;2023-03-01T11:24:09;101679.13;;;6.35;62.20
65997;BME280;52765;52.258;21.052;2023-03-01T11:26:40;101675.94;;;6.42;61.86
65997;BME280;52765;52.258;21.052;2023-03-01T11:29:16;101674.53;;;6.37;61.84
65997;BME280;52765;52.258;21.052;2023-03-01T11:31:43;101674.53;;;6.37;61.70
65997;BME280;52765;52.258;21.052;2023-03-01T11:34:19;101664.88;;;6.34;62.66
65997;BME280;52765;52.258;21.052;2023-03-01T11:36:59;101664.97;;;6.33;62.01
65997;BME280;52765;52.258;21.052;2023-03-01T11:39:31;101660.97;;;6.40;62.16
65997;BME280;52765;52.258;21.052;2023-03-01T11:42:15;101668.47;;;6.47;61.93
65997;BME280;52765;52.258;21.052;2023-03-01T11:44:44;101674.88;;;6.59;61.67
65997;BME280;52765;52.258;21.052;2023-03-01T11:50:10;101676.63;;;6.88;60.81
65997;BME280;52765;52.258;21.052;2023-03-01T11:52:49;101674.09;;;6.99;60.35
65997;BME280;52765;52.258;21.052;2023-03-01T12:00:49;101658.31;;;7.34;59.66
65997;BME280;52765;52.258;21.052;2023-03-01T12:03:26;101667.81;;;7.53;59.08
65997;BME280;52765;52.258;21.052;2023-03-01T12:06:17;101661.28;;;7.57;59.05
65997;BME280;52765;52.258;21.052;2023-03-01T12:14:18;101667.63;;;8.20;57.60
65997;BME280;52765;52.258;21.052;2023-03-01T12:25:21;101660.75;;;8.16;57.71
65997;BME280;52765;52.258;21.052;2023-03-01T12:28:04;101667.84;;;7.26;61.81
65997;BME280;52765;52.258;21.052;2023-03-01T12:39:13;101646.88;;;7.45;64.10
65997;BME280;52765;52.258;21.052;2023-03-01T12:44:32;101639.59;;;7.47;65.32
65997;BME280;52765;52.258;21.052;2023-03-01T12:49:36;101634.63;;;8.44;61.73
65997;BME280;52765;52.258;21.052;2023-03-01T12:52:21;101628.72;;;8.76;60.66
65997;BME280;52765;52.258;21.052;2023-03-01T12:54:51;101626.09;;;8.87;59.60
65997;BME280;52765;52.258;21.052;2023-03-01T13:00:36;101636.44;;;8.80;59.09
65997;BME280;52765;52.258;21.052;2023-03-01T13:03:16;101629.41;;;8.17;61.05
65997;BME280;52765;52.258;21.052;2023-03-01T13:11:21;101632.59;;;8.34;60.81
65997;BME280;52765;52.258;21.052;2023-03-01T13:13:48;101630.84;;;8.33;61.04
65997;BME280;52765;52.258;21.052;2023-03-01T13:19:19;101622.66;;;7.85;62.57
65997;BME280;52765;52.258;21.052;2023-03-01T13:21:47;101619.53;;;7.40;64.70
65997;BME280;52765;52.258;21.052;2023-03-01T13:24:43;101618.47;;;7.55;64.49
65997;BME280;52765;52.258;21.052;2023-03-01T13:32:37;101615.22;;;7.37;65.61
65997;BME280;52765;52.258;21.052;2023-03-01T13:37:44;101598.94;;;7.79;64.81
65997;BME280;52765;52.258;21.052;2023-03-01T13:42:56;101604.41;;;8.16;62.35
65997;BME280;52765;52.258;21.052;2023-03-01T13:47:58;101608.41;;;7.72;63.87
65997;BME280;52765;52.258;21.052;2023-03-01T13:50:27;101600.47;;;7.45;65.09
65997;BME280;52765;52.258;21.052;2023-03-01T13:52:59;101604.78;;;7.07;67.32
65997;BME280;52765;52.258;21.052;2023-03-01T13:55:44;101600.75;;;6.87;69.46
65997;BME280;52765;52.258;21.052;2023-03-01T13:58:31;101599.31;;;6.69;70.53
65997;BME280;52765;52.258;21.052;2023-03-01T14:01:02;101596.34;;;6.73;70.38
65997;BME280;52765;52.258;21.052;2023-03-01T14:03:29;101594.25;;;6.64;71.14
65997;BME280;52765;52.258;21.052;2023-03-01T14:08:33;101604.69;;;6.54;70.75
65997;BME280;52765;52.258;21.052;2023-03-01T14:11:27;101594.78;;;6.42;72.39
65997;BME280;52765;52.258;21.052;2023-03-01T14:19:09;101593.13;;;6.54;73.21
65997;BME280;52765;52.258;21.052;2023-03-01T14:21:39;101594.88;;;6.55;73.43
65997;BME280;52765;52.258;21.052;2023-03-01T14:24:05;101592.66;;;6.61;72.66
65997;BME280;52765;52.258;21.052;2023-03-01T14:26:31;101589.63;;;6.66;72.45
65997;BME280;52765;52.258;21.052;2023-03-01T14:28:58;101574.06;;;6.85;71.18
65997;BME280;52765;52.258;21.052;2023-03-01T14:31:38;101578.03;;;6.80;71.68
65997;BME280;52765;52.258;21.052;2023-03-01T14:34:05;101579.09;;;6.77;71.41
65997;BME280;52765;52.258;21.052;2023-03-01T14:36:33;101581.59;;;6.66;73.06
65997;BME280;52765;52.258;21.052;2023-03-01T14:38:59;101576.44;;;6.90;72.22
65997;BME280;52765;52.258;21.052;2023-03-01T14:41:33;101565.13;;;7.12;70.88
65997;BME280;52765;52.258;21.052;2023-03-01T14:44:03;101562.13;;;7.17;70.07
65997;BME280;52765;52.258;21.052;2023-03-01T14:46:33;101564.31;;;7.25;70.14
65997;BME280;52765;52.258;21.052;2023-03-01T14:51:37;101552.72;;;7.24;70.23
65997;BME280;52765;52.258;21.052;2023-03-01T14:54:05;101564.41;;;7.49;69.17
65997;BME280;52765;52.258;21.052;2023-03-01T14:56:45;101543.28;;;7.57;68.11